Time;durP1;ratioP1;P1;durP2;ratioP2;P2;SDS_P1;SDS_P2;PMS_P1;PMS_P2;Temp;Humidity;BMP_temperature;BMP_pressure;BME280_temperature;BME280_humidity;BME280_pressure;Samples;Min_cycle;Max_cycle;Signal;HPM_P1;HPM_P2
2021/03/15 00:00:55;;;;;;;13.35;4.40;;;5.50;99.90;;;;;;4988122;28;20213;-84
2021/03/15 00:03:23;;;;;;;19.30;5.05;;;5.50;99.90;;;;;;4991594;28;20268;-84
2021/03/15 00:05:50;;;;;;;14.48;5.45;;;5.50;99.90;;;;;;4985981;28;20258;-84
2021/03/15 00:08:17;;;;;;;14.43;5.85;;;5.50;99.90;;;;;;4992719;28;20229;-83
2021/03/15 00:10:44;;;;;;;17.23;5.90;;;5.40;99.90;;;;;;4996755;28;20261;-83
2021/03/15 00:13:11;;;;;;;22.75;6.63;;;5.40;99.90;;;;;;4991704;28;20237;-84
2021/03/15 00:15:38;;;;;;;12.48;6.00;;;5.50;99.90;;;;;;4991637;28;20241;-83
2021/03/15 00:18:05;;;;;;;10.82;4.30;;;5.50;99.90;;;;;;4995800;28;20286;-83
2021/03/15 00:20:33;;;;;;;17.10;6.15;;;5.40;99.90;;;;;;4985675;28;20677;-84
2021/03/15 00:23:00;;;;;;;10.50;3.97;;;5.40;99.90;;;;;;4980681;28;20240;-82
2021/03/15 00:25:27;;;;;;;13.63;4.88;;;5.40;99.90;;;;;;4975284;28;20202;-84
2021/03/15 00:27:54;;;;;;;17.02;5.45;;;5.40;99.90;;;;;;4977090;28;20207;-83
2021/03/15 00:30:21;;;;;;;15.50;4.65;;;5.30;99.90;;;;;;4986528;28;20238;-83
2021/03/15 00:32:49;;;;;;;11.23;5.05;;;5.30;99.90;;;;;;4976524;28;20218;-82
2021/03/15 00:35:17;;;;;;;20.38;5.70;;;5.20;99.90;;;;;;4968208;28;20214;-83
2021/03/15 00:37:46;;;;;;;9.50;4.50;;;5.20;99.90;;;;;;4975569;28;20754;-82
2021/03/15 00:40:15;;;;;;;14.63;4.95;;;5.20;99.90;;;;;;4973057;28;20215;-82
2021/03/15 00:42:43;;;;;;;10.85;4.75;;;5.20;99.90;;;;;;4978526;28;20249;-84
2021/03/15 00:45:11;;;;;;;12.15;4.35;;;5.20;99.90;;;;;;4977274;28;20213;-81
2021/03/15 00:47:38;;;;;;;7.28;5.00;;;5.20;99.90;;;;;;4985847;28;20280;-83
2021/03/15 00:50:09;;;;;;;14.73;4.80;;;5.30;99.90;;;;;;4990558;28;20266;-82
2021/03/15 00:52:35;;;;;;;9.52;4.72;;;5.30;99.90;;;;;;4994633;28;20285;-84
2021/03/15 00:55:03;;;;;;;12.52;4.60;;;5.30;99.90;;;;;;4982729;28;20234;-83
2021/03/15 00:57:30;;;;;;;10.63;4.88;;;5.30;99.90;;;;;;4992643;28;20229;-83
2021/03/15 00:59:57;;;;;;;9.00;4.68;;;5.40;99.90;;;;;;4999885;28;20210;-84
2021/03/15 01:02:23;;;;;;;9.75;6.50;;;5.40;99.90;;;;;;4994993;28;20242;-84
2021/03/15 01:04:50;;;;;;;10.13;5.65;;;5.50;99.90;;;;;;4986789;28;20211;-82
2021/03/15 01:07:17;;;;;;;15.48;6.35;;;5.50;99.90;;;;;;4976272;28;20246;-85
2021/03/15 01:09:43;;;;;;;7.35;4.30;;;5.60;99.90;;;;;;4982852;28;20201;-81
2021/03/15 01:12:12;;;;;;;10.15;5.10;;;5.60;99.90;;;;;;4976063;28;20227;-83
2021/03/15 01:14:38;;;;;;;7.57;4.93;;;5.60;99.90;;;;;;4977750;28;20242;-82
2021/03/15 01:17:06;;;;;;;10.90;5.32;;;5.50;99.90;;;;;;4983001;28;20220;-83
2021/03/15 01:19:33;;;;;;;11.98;5.13;;;5.60;99.90;;;;;;4988297;28;20274;-82
2021/03/15 01:21:59;;;;;;;7.80;4.95;;;5.60;99.90;;;;;;4986673;28;20261;-84
2021/03/15 01:24:26;;;;;;;8.05;5.15;;;5.50;99.90;;;;;;4989559;28;20237;-83
2021/03/15 01:26:53;;;;;;;7.38;4.60;;;5.50;99.90;;;;;;4990604;28;20266;-82
2021/03/15 01:29:20;;;;;;;9.18;5.13;;;5.50;99.90;;;;;;4989697;28;20277;-82
2021/03/15 01:31:47;;;;;;;10.75;5.25;;;5.50;99.90;;;;;;4979821;28;20227;-83
2021/03/15 01:34:14;;;;;;;7.88;5.45;;;5.40;99.90;;;;;;4985444;28;20199;-83
2021/03/15 01:36:45;;;;;;;8.75;5.00;;;5.50;99.90;;;;;;4979603;28;20226;-82
2021/03/15 01:39:12;;;;;;;11.27;4.45;;;5.40;99.90;;;;;;4981190;28;20214;-83
2021/03/15 01:41:39;;;;;;;6.57;5.13;;;5.40;99.90;;;;;;4978564;28;20230;-82
2021/03/15 01:44:06;;;;;;;11.02;5.25;;;5.40;99.90;;;;;;4978663;28;20345;-83
2021/03/15 01:46:34;;;;;;;6.70;5.93;;;5.40;99.90;;;;;;4974018;28;20277;-83
2021/03/15 01:49:00;;;;;;;7.47;5.45;;;5.40;99.90;;;;;;4975844;28;20279;-83
2021/03/15 01:51:27;;;;;;;6.07;4.82;;;5.50;99.90;;;;;;4980080;28;20665;-83
2021/03/15 01:53:54;;;;;;;8.38;4.72;;;5.50;99.90;;;;;;4982678;28;20210;-82
2021/03/15 01:56:21;;;;;;;6.10;5.22;;;5.60;99.90;;;;;;4972315;28;20213;-83
2021/03/15 01:58:48;;;;;;;4.75;3.90;;;5.60;99.90;;;;;;4975570;28;20234;-82
2021/03/15 02:01:14;;;;;;;4.82;4.43;;;5.60;99.90;;;;;;4979075;28;20202;-83
2021/03/15 02:03:43;;;;;;;5.47;4.03;;;5.60;99.90;;;;;;4970393;28;20297;-83
2021/03/15 02:06:11;;;;;;;6.70;3.92;;;5.70;99.90;;;;;;4979265;28;20576;-80
2021/03/15 02:08:37;;;;;;;5.10;3.90;;;5.70;99.90;;;;;;4993859;28;20226;-82
2021/03/15 02:11:20;;;;;;;5.78;4.03;;;5.70;99.90;;;;;;4990069;28;20225;-79
2021/03/15 02:14:07;;;;;;;7.60;4.68;;;5.60;99.90;;;;;;4984725;28;20248;-82
2021/03/15 02:16:42;;;;;;;9.38;5.00;;;5.70;99.90;;;;;;4977455;28;20204;-83
2021/03/15 02:19:45;;;;;;;7.95;5.22;;;5.60;99.90;;;;;;4990485;28;20305;-80
2021/03/15 02:22:31;;;;;;;6.60;4.63;;;5.60;99.90;;;;;;4980524;28;20217;-83
2021/03/15 02:25:26;;;;;;;9.38;5.40;;;5.70;99.90;;;;;;4994096;28;20202;-84
2021/03/15 02:28:21;;;;;;;5.93;4.03;;;5.70;99.90;;;;;;4984793;28;20213;-83
2021/03/15 02:31:12;;;;;;;5.68;4.45;;;5.70;99.90;;;;;;4985490;28;20187;-83
2021/03/15 02:34:16;;;;;;;6.72;4.97;;;5.60;99.90;;;;;;4991047;28;20206;-83
2021/03/15 02:36:46;;;;;;;7.68;4.53;;;5.70;99.90;;;;;;4951708;28;20270;-83
2021/03/15 02:39:21;;;;;;;7.10;5.78;;;5.70;99.90;;;;;;4984634;28;20246;-84
2021/03/15 02:41:52;;;;;;;4.57;4.13;;;5.70;99.90;;;;;;4999494;28;20205;-84
2021/03/15 02:44:20;;;;;;;8.70;4.38;;;5.60;99.90;;;;;;4993122;28;20195;-85
2021/03/15 02:46:49;;;;;;;7.07;4.50;;;5.60;99.90;;;;;;4998338;28;20225;-85
2021/03/15 02:49:17;;;;;;;9.02;4.13;;;5.70;99.90;;;;;;4993898;28;20230;-85
2021/03/15 02:51:49;;;;;;;5.97;5.38;;;5.70;99.90;;;;;;4994499;28;20242;-85
2021/03/15 02:54:17;;;;;;;5.00;2.92;;;5.70;99.90;;;;;;4993267;28;20292;-83
2021/03/15 02:56:47;;;;;;;7.00;3.20;;;5.80;99.90;;;;;;4999100;28;20214;-83
2021/03/15 02:59:16;;;;;;;4.03;3.63;;;5.70;99.90;;;;;;4996299;28;20270;-82
2021/03/15 03:01:46;;;;;;;5.53;3.30;;;5.60;99.90;;;;;;4974046;28;20322;-83
2021/03/15 03:04:14;;;;;;;5.03;2.63;;;5.70;99.90;;;;;;4981365;28;20707;-82
2021/03/15 03:06:43;;;;;;;3.00;2.47;;;5.80;99.90;;;;;;4981514;28;20213;-82
2021/03/15 03:09:14;;;;;;;3.30;3.00;;;5.80;99.90;;;;;;4980474;28;20233;-82
2021/03/15 03:11:42;;;;;;;3.85;2.67;;;5.80;99.90;;;;;;4980404;28;20297;-82
2021/03/15 03:14:11;;;;;;;5.78;3.08;;;5.80;99.90;;;;;;4983329;28;20293;-81
2021/03/15 03:16:40;;;;;;;8.07;3.83;;;5.80;99.90;;;;;;4969069;28;20227;-84
2021/03/15 03:19:09;;;;;;;6.75;3.60;;;5.70;99.90;;;;;;4984058;28;20234;-82
2021/03/15 03:21:37;;;;;;;11.80;3.45;;;5.70;99.90;;;;;;4981018;28;20290;-82
2021/03/15 03:24:05;;;;;;;4.03;3.25;;;5.60;99.90;;;;;;4984626;28;20198;-82
2021/03/15 03:26:34;;;;;;;5.28;3.10;;;5.60;99.90;;;;;;4970152;28;20213;-80
2021/03/15 03:29:01;;;;;;;4.20;3.72;;;5.60;99.90;;;;;;4978780;28;20214;-82
2021/03/15 03:31:31;;;;;;;3.35;2.75;;;5.60;99.90;;;;;;4980675;28;20669;-81
2021/03/15 03:33:59;;;;;;;4.65;3.88;;;5.60;99.90;;;;;;4986457;28;20202;-81
2021/03/15 03:36:26;;;;;;;5.78;3.88;;;5.50;99.90;;;;;;4978595;28;20734;-80
2021/03/15 03:38:54;;;;;;;4.07;3.03;;;5.50;99.90;;;;;;4975984;28;20230;-81
2021/03/15 03:41:21;;;;;;;5.25;3.40;;;5.50;99.90;;;;;;4972156;28;20290;-80
2021/03/15 03:43:48;;;;;;;5.93;3.70;;;5.40;99.90;;;;;;4972400;28;20567;-81
2021/03/15 03:46:16;;;;;;;7.03;3.65;;;5.30;99.90;;;;;;4983367;28;20278;-80
2021/03/15 03:48:44;;;;;;;6.45;4.80;;;5.30;99.90;;;;;;4977255;28;20202;-84
2021/03/15 03:51:11;;;;;;;4.22;3.63;;;5.20;99.90;;;;;;4978382;28;20297;-80
2021/03/15 03:53:46;;;;;;;4.13;3.72;;;5.10;99.90;;;;;;4976910;28;20266;-80
2021/03/15 03:56:14;;;;;;;4.82;4.28;;;5.10;99.90;;;;;;4979608;28;20217;-80
2021/03/15 03:58:44;;;;;;;4.43;4.00;;;5.10;99.90;;;;;;4987109;28;20233;-81
2021/03/15 04:01:13;;;;;;;6.10;4.43;;;5.00;99.90;;;;;;4986677;28;20206;-80
2021/03/15 04:03:44;;;;;;;4.70;3.92;;;5.00;99.90;;;;;;4982493;28;20266;-82
2021/03/15 04:06:13;;;;;;;5.00;4.50;;;5.10;99.90;;;;;;4972668;28;20199;-81
2021/03/15 04:08:46;;;;;;;7.47;4.57;;;5.10;99.90;;;;;;4979913;28;20226;-80
2021/03/15 04:11:13;;;;;;;6.47;4.68;;;5.10;99.90;;;;;;4987757;28;20241;-83
2021/03/15 04:13:44;;;;;;;7.28;5.20;;;5.10;99.90;;;;;;4982659;28;20202;-82
2021/03/15 04:16:13;;;;;;;4.60;4.03;;;5.10;99.90;;;;;;4983274;28;20202;-82
2021/03/15 04:18:46;;;;;;;7.70;4.10;;;5.20;99.90;;;;;;4970326;28;20306;-83
2021/03/15 04:21:15;;;;;;;6.25;4.70;;;5.20;99.90;;;;;;4964422;28;20214;-82
2021/03/15 04:23:45;;;;;;;9.05;5.90;;;5.20;99.90;;;;;;4971242;28;20202;-82
2021/03/15 04:26:13;;;;;;;6.00;5.00;;;5.20;99.90;;;;;;4986553;28;20263;-82
2021/03/15 04:28:41;;;;;;;7.28;4.65;;;5.20;99.90;;;;;;4976290;28;20296;-83
2021/03/15 04:31:10;;;;;;;7.25;5.03;;;5.30;99.90;;;;;;4979689;28;20207;-83
2021/03/15 04:33:39;;;;;;;6.40;5.53;;;5.30;99.90;;;;;;4971666;28;20612;-80
2021/03/15 04:36:08;;;;;;;6.47;5.72;;;5.30;99.90;;;;;;4974590;28;20202;-83
2021/03/15 04:38:36;;;;;;;6.82;6.20;;;5.30;99.90;;;;;;4976968;28;20229;-83
2021/03/15 04:41:04;;;;;;;5.68;5.15;;;5.30;99.90;;;;;;4980793;28;20214;-81
2021/03/15 04:43:32;;;;;;;5.57;4.95;;;5.30;99.90;;;;;;4966282;28;20222;-82
2021/03/15 04:45:58;;;;;;;6.72;5.60;;;5.30;99.90;;;;;;4975668;28;20230;-82
2021/03/15 04:48:27;;;;;;;7.65;5.35;;;5.30;99.90;;;;;;4976938;28;20540;-84
2021/03/15 04:50:57;;;;;;;6.53;5.82;;;5.30;99.90;;;;;;4979998;28;20313;-83
2021/03/15 04:53:25;;;;;;;5.78;4.60;;;5.30;99.90;;;;;;4973424;28;20229;-81
2021/03/15 04:55:53;;;;;;;8.02;4.80;;;5.30;99.90;;;;;;4973748;28;20198;-81
2021/03/15 04:58:20;;;;;;;6.80;4.70;;;5.30;99.90;;;;;;4972330;28;20286;-83
2021/03/15 05:00:49;;;;;;;4.95;4.45;;;5.20;99.90;;;;;;4965778;28;20203;-82
2021/03/15 05:03:18;;;;;;;6.13;4.85;;;5.20;99.90;;;;;;4975440;28;20702;-82
2021/03/15 05:05:47;;;;;;;6.82;4.63;;;5.20;99.90;;;;;;4974889;28;20225;-82
2021/03/15 05:08:19;;;;;;;6.35;5.75;;;5.20;99.90;;;;;;4972119;28;20665;-82
2021/03/15 05:10:47;;;;;;;5.63;5.10;;;5.20;99.90;;;;;;4972322;28;20287;-82
2021/03/15 05:13:14;;;;;;;6.63;4.40;;;5.20;99.90;;;;;;4973318;28;20644;-82
2021/03/15 05:15:42;;;;;;;7.60;6.07;;;5.30;99.90;;;;;;4979653;28;20213;-83
2021/03/15 05:18:11;;;;;;;8.40;5.40;;;5.30;99.90;;;;;;4980718;28;20309;-84
2021/03/15 05:20:39;;;;;;;8.20;6.05;;;5.30;99.90;;;;;;4981031;28;20202;-83
2021/03/15 05:23:08;;;;;;;6.10;5.03;;;5.30;99.90;;;;;;4978197;28;20230;-83
2021/03/15 05:25:37;;;;;;;8.18;6.00;;;5.30;99.90;;;;;;4984938;28;20211;-81
2021/03/15 05:28:06;;;;;;;7.47;5.10;;;5.40;99.90;;;;;;4985949;28;20225;-82
2021/03/15 05:30:34;;;;;;;8.10;6.10;;;5.30;99.90;;;;;;4960452;28;780301;-83
2021/03/15 05:33:03;;;;;;;10.20;5.90;;;5.40;99.90;;;;;;4985278;28;20265;-82
2021/03/15 05:35:31;;;;;;;8.88;5.57;;;5.40;99.90;;;;;;4972236;28;20246;-82
2021/03/15 05:38:00;;;;;;;10.85;6.65;;;5.50;99.90;;;;;;4989712;28;20222;-83
2021/03/15 05:40:28;;;;;;;9.93;5.68;;;5.50;99.90;;;;;;4983371;28;20345;-80
2021/03/15 05:43:16;;;;;;;9.82;5.75;;;5.50;99.90;;;;;;4985037;28;20227;-82
2021/03/15 05:46:08;;;;;;;6.90;5.18;;;5.50;99.90;;;;;;4984790;28;20677;-82
2021/03/15 05:49:14;;;;;;;7.05;5.97;;;5.60;99.90;;;;;;4982371;28;20209;-84
2021/03/15 05:52:13;;;;;;;8.07;5.38;;;5.60;99.90;;;;;;4977113;28;20282;-80
2021/03/15 05:55:35;;;;;;;7.15;4.88;;;5.60;99.90;;;;;;4988893;28;20206;-83
2021/03/15 05:58:35;;;;;;;11.02;5.70;;;5.70;99.90;;;;;;4989877;28;20232;-83
2021/03/15 06:01:27;;;;;;;7.78;5.97;;;5.70;99.90;;;;;;4973397;28;20657;-80
2021/03/15 06:04:32;;;;;;;7.68;4.95;;;5.60;99.90;;;;;;4990786;28;20218;-80
2021/03/15 06:07:02;;;;;;;14.13;7.75;;;5.70;99.90;;;;;;4989719;28;20206;-80
2021/03/15 06:09:31;;;;;;;14.30;5.50;;;5.60;99.90;;;;;;4986534;28;20294;-84
2021/03/15 06:12:02;;;;;;;13.82;5.35;;;5.60;99.90;;;;;;4983680;28;20651;-81
2021/03/15 06:14:30;;;;;;;11.52;6.60;;;5.50;99.90;;;;;;4967622;28;20223;-81
2021/03/15 06:16:58;;;;;;;10.00;5.00;;;5.60;99.90;;;;;;4978939;28;20696;-84
2021/03/15 06:19:25;;;;;;;11.93;5.90;;;5.60;99.90;;;;;;4976511;28;20211;-84
2021/03/15 06:21:53;;;;;;;17.45;7.30;;;5.70;99.90;;;;;;4987251;28;20222;-83
2021/03/15 06:24:20;;;;;;;13.50;6.00;;;5.80;99.90;;;;;;4982022;28;20305;-84
2021/03/15 06:26:47;;;;;;;13.00;5.72;;;5.80;99.90;;;;;;4983940;28;20206;-84
2021/03/15 06:29:13;;;;;;;9.57;6.30;;;5.90;99.90;;;;;;4984560;28;20210;-82
2021/03/15 06:31:43;;;;;;;11.05;6.50;;;6.00;99.90;;;;;;4978333;28;20218;-81
2021/03/15 06:34:15;;;;;;;15.38;6.82;;;6.10;99.90;;;;;;4979331;28;20203;-84
2021/03/15 06:36:42;;;;;;;11.30;5.00;;;6.10;99.90;;;;;;4980672;28;20231;-85
2021/03/15 06:39:11;;;;;;;11.98;5.40;;;6.30;99.90;;;;;;4982398;28;20275;-86
2021/03/15 06:41:42;;;;;;;8.90;5.22;;;6.50;99.90;;;;;;4979387;28;20227;-80
2021/03/15 06:44:09;;;;;;;13.63;5.93;;;6.60;99.90;;;;;;4993566;28;20253;-84
2021/03/15 06:46:36;;;;;;;9.38;5.68;;;6.60;99.90;;;;;;4979719;28;20243;-81
2021/03/15 06:49:03;;;;;;;14.48;5.22;;;6.60;99.90;;;;;;4982468;28;20204;-82
2021/03/15 06:51:31;;;;;;;12.80;6.15;;;6.70;99.90;;;;;;4987835;28;20244;-86
2021/03/15 06:53:58;;;;;;;9.70;6.22;;;6.60;99.90;;;;;;4989846;28;20270;-85
2021/03/15 06:56:25;;;;;;;9.18;5.38;;;6.60;99.90;;;;;;4986951;28;20203;-85
2021/03/15 06:58:55;;;;;;;10.95;5.75;;;6.50;99.90;;;;;;4984197;28;20549;-84
2021/03/15 07:01:24;;;;;;;11.25;5.72;;;6.40;99.90;;;;;;4974928;28;20210;-86
2021/03/15 07:03:52;;;;;;;13.27;6.70;;;6.50;99.90;;;;;;4985632;28;20211;-80
2021/03/15 07:06:34;;;;;;;7.45;5.78;;;6.50;99.90;;;;;;4977480;28;20293;-82
2021/03/15 07:09:12;;;;;;;10.38;5.90;;;6.50;99.90;;;;;;4984607;28;20198;-82
2021/03/15 07:12:01;;;;;;;14.02;5.60;;;6.50;99.90;;;;;;4978995;28;20218;-82
2021/03/15 07:14:34;;;;;;;17.17;6.95;;;6.60;99.90;;;;;;4981255;28;20210;-81
2021/03/15 07:17:03;;;;;;;13.57;5.50;;;6.70;99.90;;;;;;4982019;28;20217;-82
2021/03/15 07:19:32;;;;;;;11.38;6.45;;;6.60;99.90;;;;;;4971963;28;20200;-82
2021/03/15 07:22:48;;;;;;;14.98;6.22;;;6.50;99.90;;;;;;4979171;28;20218;-79
2021/03/15 07:25:17;;;;;;;19.73;6.75;;;6.40;99.90;;;;;;4983724;28;20218;-83
2021/03/15 07:27:53;;;;;;;19.42;7.85;;;6.50;99.90;;;;;;4981350;28;20225;-83
2021/03/15 07:33:36;;;;;;;12.93;6.43;;;6.40;99.90;;;;;;4986284;28;20277;-81
2021/03/15 07:36:11;;;;;;;17.95;6.78;;;6.50;99.90;;;;;;4982503;28;20200;-83
2021/03/15 07:38:38;;;;;;;13.45;6.22;;;6.50;99.90;;;;;;4977334;28;20212;-82
2021/03/15 07:41:14;;;;;;;15.88;6.97;;;6.70;99.90;;;;;;4980269;28;20211;-82
2021/03/15 07:43:42;;;;;;;12.25;5.30;;;6.80;99.90;;;;;;4972365;28;20207;-83
2021/03/15 07:46:18;;;;;;;13.55;6.35;;;7.00;99.90;;;;;;4978565;28;20209;-83
2021/03/15 07:48:45;;;;;;;15.85;7.45;;;6.80;99.90;;;;;;4981047;28;20215;-81
2021/03/15 07:51:13;;;;;;;12.60;6.50;;;6.80;99.90;;;;;;4995331;28;20227;-84
2021/03/15 07:53:46;;;;;;;13.52;5.25;;;6.80;99.90;;;;;;4987800;28;20236;-85
2021/03/15 07:56:20;;;;;;;23.33;7.93;;;6.80;99.90;;;;;;4987442;28;20246;-84
2021/03/15 07:58:47;;;;;;;16.48;7.25;;;6.80;99.90;;;;;;4990285;28;20234;-84
2021/03/15 08:14:02;;;;;;;17.50;5.70;;;7.60;99.90;;;;;;4978121;28;20289;-82
2021/03/15 08:16:41;;;;;;;17.75;5.15;;;7.70;99.90;;;;;;4968863;28;20239;-81
2021/03/15 08:19:30;;;;;;;12.52;6.30;;;7.70;99.90;;;;;;4981114;28;20221;-82
2021/03/15 08:25:14;;;;;;;13.18;6.22;;;7.30;99.90;;;;;;4974399;28;20198;-82
2021/03/15 08:30:51;;;;;;;15.07;4.90;;;7.50;99.90;;;;;;4965169;28;20227;-82
2021/03/15 08:33:32;;;;;;;17.05;6.00;;;7.60;99.90;;;;;;4976934;28;20225;-83
2021/03/15 08:36:18;;;;;;;13.82;5.07;;;7.50;99.90;;;;;;4975594;28;20213;-83
2021/03/15 08:42:22;;;;;;;12.95;4.93;;;7.80;99.90;;;;;;4943929;28;20237;-83
2021/03/15 08:44:49;;;;;;;16.15;5.38;;;8.00;99.90;;;;;;4979371;28;20290;-83
2021/03/15 08:47:50;;;;;;;13.18;3.97;;;7.90;99.90;;;;;;4986645;28;20203;-82
2021/03/15 08:50:43;;;;;;;10.10;4.28;;;8.10;99.90;;;;;;4984171;28;20581;-82
2021/03/15 08:53:10;;;;;;;8.70;4.32;;;8.40;99.90;;;;;;4980298;28;20313;-83
2021/03/15 08:55:49;;;;;;;9.82;3.97;;;9.00;99.90;;;;;;4985035;28;20233;-82
2021/03/15 08:58:38;;;;;;;7.97;3.35;;;9.00;99.90;;;;;;4976813;28;20241;-81
2021/03/15 09:01:08;;;;;;;9.20;4.72;;;8.90;99.90;;;;;;4978285;28;20206;-83
2021/03/15 09:03:50;;;;;;;6.32;3.58;;;8.70;99.90;;;;;;4979666;28;20231;-84
2021/03/15 09:06:46;;;;;;;15.93;4.68;;;8.70;99.90;;;;;;4987368;28;20292;-82
2021/03/15 09:09:14;;;;;;;13.70;4.28;;;8.60;99.90;;;;;;4982916;28;20206;-82
2021/03/15 09:11:51;;;;;;;9.88;4.43;;;8.40;99.90;;;;;;4985710;28;20225;-81
2021/03/15 09:14:36;;;;;;;14.32;4.30;;;8.40;99.90;;;;;;4979047;28;20198;-82
2021/03/15 09:17:31;;;;;;;13.55;5.32;;;8.40;99.90;;;;;;4986660;28;20695;-84
2021/03/15 09:20:15;;;;;;;8.60;4.30;;;8.40;99.90;;;;;;4981476;28;20291;-84
2021/03/15 09:22:41;;;;;;;13.90;4.88;;;8.40;99.90;;;;;;4980489;28;20271;-83
2021/03/15 09:25:19;;;;;;;11.55;4.65;;;8.30;99.90;;;;;;4984872;28;20277;-82
2021/03/15 09:27:46;;;;;;;13.45;5.20;;;8.10;99.90;;;;;;4986847;28;20284;-83
2021/03/15 09:30:20;;;;;;;8.88;4.28;;;8.10;99.90;;;;;;4981038;28;20301;-82
2021/03/15 09:32:48;;;;;;;14.50;4.85;;;8.30;99.90;;;;;;4974831;28;20241;-81
2021/03/15 09:35:20;;;;;;;8.15;3.80;;;8.20;99.90;;;;;;4975954;28;20303;-82
2021/03/15 09:37:56;;;;;;;12.40;4.35;;;8.10;99.90;;;;;;4975261;28;20227;-84
2021/03/15 09:40:25;;;;;;;10.30;4.72;;;8.00;99.90;;;;;;4983495;28;20622;-83
2021/03/15 09:43:01;;;;;;;16.10;4.30;;;8.10;99.90;;;;;;4985899;28;20228;-82
2021/03/15 09:45:35;;;;;;;7.85;3.20;;;8.10;99.90;;;;;;4981546;28;20270;-82
2021/03/15 09:48:03;;;;;;;10.15;3.72;;;7.90;99.90;;;;;;4975631;28;20207;-80
2021/03/15 09:50:34;;;;;;;10.93;4.22;;;8.10;99.90;;;;;;4980061;28;20203;-82
2021/03/15 09:53:09;;;;;;;11.77;4.30;;;8.20;99.90;;;;;;4976237;28;20285;-82
2021/03/15 09:55:36;;;;;;;13.25;4.35;;;8.30;99.90;;;;;;4974279;28;20217;-82
2021/03/15 09:58:04;;;;;;;16.77;5.32;;;8.50;99.90;;;;;;4980436;28;20230;-85
2021/03/15 10:00:31;;;;;;;10.95;3.53;;;8.80;99.90;;;;;;4972779;28;20202;-83
2021/03/15 10:02:58;;;;;;;17.02;4.05;;;9.20;99.90;;;;;;4992958;28;20218;-83
2021/03/15 10:05:25;;;;;;;13.95;3.90;;;9.70;99.90;;;;;;4995335;28;20209;-82
2021/03/15 10:07:53;;;;;;;12.18;3.65;;;10.20;99.90;;;;;;4992225;28;20198;-81
2021/03/15 10:10:22;;;;;;;13.23;3.28;;;10.60;99.90;;;;;;4979336;28;20606;-84
2021/03/15 10:12:51;;;;;;;7.80;2.40;;;11.50;99.90;;;;;;4984166;28;20224;-83
2021/03/15 10:15:18;;;;;;;10.68;3.72;;;12.60;99.90;;;;;;4979387;28;20209;-81
2021/03/15 10:17:48;;;;;;;9.18;3.78;;;13.60;99.90;;;;;;4977194;28;20229;-82
2021/03/15 10:20:23;;;;;;;13.52;2.72;;;14.00;99.90;;;;;;4982976;28;20218;-83
2021/03/15 10:22:50;;;;;;;16.30;3.55;;;14.40;99.90;;;;;;4979342;28;20240;-82
2021/03/15 10:25:18;;;;;;;7.50;3.40;;;14.40;98.10;;;;;;4987720;28;20214;-83
2021/03/15 10:27:57;;;;;;;13.95;3.80;;;14.60;98.50;;;;;;4985628;28;20884;-83
2021/03/15 10:30:27;;;;;;;7.55;3.03;;;15.00;97.20;;;;;;4986586;28;20218;-82
2021/03/15 10:32:54;;;;;;;13.07;4.18;;;15.70;96.00;;;;;;4980790;28;20269;-83
2021/03/15 10:35:23;;;;;;;8.43;2.47;;;15.70;94.80;;;;;;4984718;28;20665;-82
2021/03/15 10:37:53;;;;;;;12.77;2.63;;;16.10;94.00;;;;;;4975929;28;20290;-82
2021/03/15 10:40:23;;;;;;;11.55;2.80;;;15.60;93.40;;;;;;4973772;28;20341;-81
2021/03/15 10:42:50;;;;;;;7.20;2.72;;;15.10;93.70;;;;;;4982891;28;20258;-81
2021/03/15 10:45:18;;;;;;;13.65;3.53;;;14.10;95.60;;;;;;4987765;28;20291;-82
2021/03/15 10:47:44;;;;;;;8.15;3.33;;;13.20;97.80;;;;;;4990301;28;20204;-84
2021/03/15 10:50:28;;;;;;;11.60;3.08;;;12.40;99.90;;;;;;4979926;28;20285;-81
2021/03/15 10:52:55;;;;;;;17.85;3.17;;;11.70;99.90;;;;;;4991775;28;20273;-83
2021/03/15 10:55:31;;;;;;;8.40;3.30;;;11.10;99.90;;;;;;4987892;28;20234;-82
2021/03/15 10:58:05;;;;;;;18.45;4.53;;;10.90;99.90;;;;;;4993138;28;20285;-84
2021/03/15 11:00:33;;;;;;;13.40;4.55;;;10.70;99.90;;;;;;4984895;28;20232;-81
2021/03/15 11:03:01;;;;;;;10.07;3.60;;;10.50;99.90;;;;;;4991174;28;20218;-83
2021/03/15 11:05:27;;;;;;;15.27;5.03;;;10.40;99.90;;;;;;4995056;28;20257;-83
2021/03/15 11:07:54;;;;;;;24.65;5.70;;;10.10;99.90;;;;;;4986652;28;20651;-83
2021/03/15 11:10:24;;;;;;;10.10;4.18;;;9.80;99.90;;;;;;4990664;28;20229;-83
2021/03/15 11:12:53;;;;;;;11.57;4.13;;;9.90;99.90;;;;;;4992697;28;20250;-81
2021/03/15 11:15:32;;;;;;;15.43;4.22;;;10.20;99.90;;;;;;4986092;28;20262;-82
2021/03/15 11:18:10;;;;;;;11.93;4.35;;;10.50;99.90;;;;;;4985588;28;20243;-81
2021/03/15 11:20:44;;;;;;;8.30;2.70;;;10.90;99.90;;;;;;4969825;28;20207;-83
2021/03/15 11:23:11;;;;;;;17.77;4.93;;;11.00;99.90;;;;;;4978193;28;20722;-82
2021/03/15 11:25:40;;;;;;;17.88;3.90;;;10.90;99.90;;;;;;4973758;28;20218;-82
2021/03/15 11:28:09;;;;;;;10.80;5.13;;;10.90;99.90;;;;;;4978495;28;20270;-83
2021/03/15 11:30:37;;;;;;;15.52;4.25;;;11.00;99.90;;;;;;4965123;28;20198;-83
2021/03/15 11:33:07;;;;;;;11.50;4.30;;;10.90;99.90;;;;;;4970793;28;20265;-82
2021/03/15 11:35:34;;;;;;;15.18;4.57;;;10.60;99.90;;;;;;4981900;28;20290;-82
2021/03/15 11:38:02;;;;;;;22.85;5.60;;;10.60;99.90;;;;;;4976695;28;20230;-82
2021/03/15 11:40:32;;;;;;;19.23;4.80;;;10.40;99.90;;;;;;4992628;28;20222;-84
2021/03/15 11:43:01;;;;;;;17.15;3.80;;;10.30;99.90;;;;;;4987842;28;20262;-83
2021/03/15 11:45:28;;;;;;;19.70;3.83;;;10.10;99.90;;;;;;4994699;28;20254;-85
2021/03/15 11:47:56;;;;;;;15.48;4.45;;;9.60;99.90;;;;;;4980160;28;20424;-83
2021/03/15 11:50:24;;;;;;;19.45;6.13;;;9.50;99.90;;;;;;4988526;28;20211;-82
2021/03/15 11:52:52;;;;;;;14.75;5.00;;;9.70;99.90;;;;;;4983290;28;20218;-82
2021/03/15 11:55:19;;;;;;;16.23;5.95;;;10.10;99.90;;;;;;4978339;28;20202;-82
2021/03/15 11:57:46;;;;;;;16.55;5.53;;;10.20;99.90;;;;;;4980366;28;20203;-82
2021/03/15 12:00:18;;;;;;;19.73;5.43;;;10.30;99.90;;;;;;4984533;28;20273;-83
2021/03/15 12:02:45;;;;;;;15.60;4.78;;;10.40;99.90;;;;;;4978578;28;20223;-82
2021/03/15 12:05:13;;;;;;;15.90;5.95;;;10.50;99.90;;;;;;4971703;28;20285;-82
2021/03/15 12:07:39;;;;;;;24.17;8.05;;;10.40;99.90;;;;;;4977733;28;20254;-81
2021/03/15 12:10:08;;;;;;;19.55;6.00;;;10.10;99.90;;;;;;4978345;28;20211;-81
2021/03/15 12:12:35;;;;;;;28.63;5.35;;;10.20;99.90;;;;;;4973529;28;20290;-82
2021/03/15 12:15:02;;;;;;;51.00;6.82;;;10.30;99.90;;;;;;4975547;28;20198;-81
2021/03/15 12:17:32;;;;;;;26.80;6.43;;;10.70;99.90;;;;;;4972491;28;20645;-83
2021/03/15 12:19:59;;;;;;;22.63;6.03;;;10.80;99.90;;;;;;4969844;28;20212;-83
2021/03/15 12:22:25;;;;;;;20.02;5.70;;;10.80;99.90;;;;;;4966370;28;20248;-82
2021/03/15 12:24:52;;;;;;;15.85;5.20;;;10.60;99.90;;;;;;4976619;28;20274;-82
2021/03/15 12:27:19;;;;;;;19.25;5.80;;;10.40;99.90;;;;;;4976891;28;20213;-82
2021/03/15 12:29:46;;;;;;;15.23;4.97;;;10.40;99.90;;;;;;4975919;28;20313;-83
2021/03/15 12:32:13;;;;;;;21.30;5.45;;;10.40;99.90;;;;;;4971578;28;20242;-83
2021/03/15 12:34:41;;;;;;;16.42;5.25;;;10.50;99.90;;;;;;4978723;28;20278;-82
2021/03/15 12:37:07;;;;;;;14.90;4.30;;;10.30;99.90;;;;;;4971200;28;20285;-83
2021/03/15 12:39:35;;;;;;;21.30;6.45;;;10.10;99.90;;;;;;4986125;28;20294;-83
2021/03/15 12:42:02;;;;;;;20.38;7.28;;;9.80;99.90;;;;;;4986014;28;20234;-83
2021/03/15 12:44:29;;;;;;;17.38;6.13;;;9.60;99.90;;;;;;4976790;28;20237;-83
2021/03/15 12:46:56;;;;;;;15.48;5.35;;;9.50;99.90;;;;;;4977208;28;20234;-83
2021/03/15 12:49:23;;;;;;;13.95;4.70;;;9.40;99.90;;;;;;4984209;28;20272;-81
2021/03/15 12:51:50;;;;;;;23.60;7.47;;;9.50;99.90;;;;;;4981152;28;20312;-82
2021/03/15 12:54:17;;;;;;;20.40;6.55;;;9.40;99.90;;;;;;4984868;28;20240;-83
2021/03/15 12:56:44;;;;;;;17.02;4.75;;;9.40;99.90;;;;;;4988472;28;20209;-82
2021/03/15 12:59:12;;;;;;;21.63;6.72;;;9.30;99.90;;;;;;4975318;28;20290;-83
2021/03/15 13:01:39;;;;;;;18.85;4.70;;;9.30;99.90;;;;;;4984379;28;20222;-82
2021/03/15 13:04:07;;;;;;;16.58;3.80;;;9.30;99.90;;;;;;4982664;28;20206;-83
2021/03/15 13:06:34;;;;;;;15.18;6.30;;;9.60;99.90;;;;;;4986120;28;20262;-84
2021/03/15 13:09:02;;;;;;;17.20;5.40;;;9.80;99.90;;;;;;4970482;28;20203;-81
2021/03/15 13:11:29;;;;;;;22.38;6.80;;;9.90;99.90;;;;;;4971822;28;20244;-83
2021/03/15 13:13:56;;;;;;;20.73;4.68;;;10.10;99.90;;;;;;4987908;28;20202;-82
2021/03/15 13:16:23;;;;;;;18.73;5.35;;;10.10;99.90;;;;;;4979143;28;20338;-83
2021/03/15 13:18:49;;;;;;;16.95;4.72;;;10.20;99.90;;;;;;4988838;28;20282;-83
2021/03/15 13:21:16;;;;;;;10.10;3.60;;;10.10;99.90;;;;;;4981336;28;20198;-83
2021/03/15 13:23:43;;;;;;;22.90;6.90;;;9.90;99.90;;;;;;4987683;28;20203;-81
2021/03/15 13:26:11;;;;;;;15.75;4.88;;;9.80;99.90;;;;;;4986169;28;20229;-82
2021/03/15 13:28:38;;;;;;;23.15;5.20;;;9.90;99.90;;;;;;4985319;28;20230;-82
2021/03/15 13:31:04;;;;;;;18.20;3.90;;;9.70;99.90;;;;;;4978256;28;20262;-83
2021/03/15 13:33:31;;;;;;;14.55;5.05;;;9.70;99.90;;;;;;4981201;28;20285;-80
2021/03/15 13:35:59;;;;;;;17.27;5.28;;;9.60;99.90;;;;;;4977393;28;20242;-83